createdAt,value
2018-10-07T00:04:01.675Z,10.13
2018-10-07T00:09:56.701Z,8.77
2018-10-07T00:15:51.657Z,9.44
2018-10-07T00:21:46.681Z,8.8
2018-10-07T00:27:41.679Z,9.87
2018-10-07T00:33:36.690Z,9.02
2018-10-07T00:39:31.728Z,9.56
2018-10-07T00:45:26.685Z,9.46
2018-10-07T00:51:21.691Z,10.02
2018-10-07T00:57:16.702Z,9.89
2018-10-07T01:03:11.716Z,10.3
2018-10-07T01:09:06.691Z,9.93
2018-10-07T01:15:01.721Z,10.35
2018-10-07T01:20:56.777Z,10.11
2018-10-07T01:26:51.748Z,10.58
2018-10-07T01:32:46.754Z,10.99
2018-10-07T01:38:41.695Z,11.8
2018-10-07T01:44:36.724Z,12.65
2018-10-07T01:50:31.741Z,13.12
2018-10-07T01:56:26.750Z,12.47
2018-10-07T02:02:21.730Z,11.68
2018-10-07T02:08:16.790Z,11.77
2018-10-07T02:14:11.789Z,10.55
2018-10-07T02:20:06.780Z,10.49
2018-10-07T02:26:01.737Z,10.65
2018-10-07T02:31:56.759Z,9.98
2018-10-07T02:37:51.741Z,10.67
2018-10-07T02:43:46.773Z,10.7
2018-10-07T02:49:41.754Z,10.43
2018-10-07T02:55:36.787Z,9.81
2018-10-07T03:01:31.797Z,10.73
2018-10-07T03:07:26.787Z,10.77
2018-10-07T03:13:21.796Z,10.19
2018-10-07T03:19:16.793Z,10.77
2018-10-07T03:25:11.797Z,10.18
2018-10-07T03:31:06.815Z,9.58
2018-10-07T03:37:01.853Z,9.97
2018-10-07T03:42:56.792Z,10.69
2018-10-07T03:48:51.815Z,9.56
2018-10-07T03:54:46.793Z,9.89
2018-10-07T04:00:41.845Z,9.63
2018-10-07T04:06:36.836Z,10.34
2018-10-07T04:12:31.789Z,9.82
2018-10-07T04:18:26.833Z,8.94
2018-10-07T04:24:21.810Z,7.63
2018-10-07T04:30:16.818Z,10.22
2018-10-07T04:36:11.852Z,12.28
2018-10-07T04:42:06.819Z,13.79
2018-10-07T04:48:01.841Z,14.41
2018-10-07T04:53:56.837Z,13.92
2018-10-07T04:59:51.865Z,13.69
2018-10-07T05:05:46.847Z,12.45
2018-10-07T05:11:41.880Z,12.47
2018-10-07T05:17:36.865Z,11.85
2018-10-07T05:23:31.902Z,12.76
2018-10-07T05:29:26.845Z,12.15
2018-10-07T05:35:21.849Z,12.73
2018-10-07T05:41:16.899Z,13.48
2018-10-07T05:47:11.877Z,12.83
2018-10-07T05:53:06.988Z,13.08
2018-10-07T05:59:01.893Z,14.17
2018-10-07T06:04:56.898Z,16.07
2018-10-07T06:10:51.905Z,15.57
2018-10-07T06:16:46.880Z,15.5
2018-10-07T06:22:41.893Z,15.55
2018-10-07T06:28:36.946Z,15.39
2018-10-07T06:34:31.905Z,16.68
2018-10-07T06:40:26.922Z,15.31
2018-10-07T06:46:21.914Z,14.75
2018-10-07T06:52:16.893Z,14.49
2018-10-07T06:58:11.910Z,12.17
2018-10-07T07:04:06.908Z,13.25
2018-10-07T07:10:01.927Z,15.38
2018-10-07T07:15:56.909Z,14.18
2018-10-07T07:21:51.948Z,14.31
2018-10-07T07:27:46.963Z,15.36
2018-10-07T07:33:41.928Z,45.2
2018-10-07T07:39:36.961Z,16.93
2018-10-07T07:45:31.947Z,17.52
2018-10-07T07:51:26.961Z,18.88
2018-10-07T07:57:21.945Z,18.7
2018-10-07T08:03:16.951Z,18.93
2018-10-07T08:09:11.976Z,18.64
2018-10-07T08:15:06.986Z,19.15
2018-10-07T08:21:01.974Z,21.59
2018-10-07T08:26:56.979Z,24.93
2018-10-07T08:32:51.997Z,37.69
2018-10-07T08:38:46.962Z,47.61
2018-10-07T08:44:41.969Z,23.52
2018-10-07T08:50:36.994Z,19.39
2018-10-07T08:56:32.095Z,18.35
2018-10-07T09:02:27.004Z,19.54
2018-10-07T09:08:22.015Z,17.42
2018-10-07T09:14:17.018Z,18.02
2018-10-07T09:20:12.049Z,16.84
2018-10-07T09:26:07.005Z,17.61
2018-10-07T09:32:02.085Z,16.04
2018-10-07T09:37:57.033Z,21.34
2018-10-07T09:43:52.014Z,22.91
2018-10-07T09:49:47.014Z,19.9
2018-10-07T09:55:42.012Z,19.53
2018-10-07T10:01:37.043Z,18.53
2018-10-07T10:07:32.074Z,15.4
2018-10-07T10:13:27.052Z,14
2018-10-07T10:19:22.032Z,12.24
2018-10-07T10:25:17.053Z,10.7
2018-10-07T10:31:12.060Z,11.77
2018-10-07T10:37:07.083Z,11.81
2018-10-07T10:43:02.049Z,10.49
2018-10-07T10:48:57.036Z,8.97
2018-10-07T10:54:52.045Z,6.63
2018-10-07T11:00:47.123Z,6.64
2018-10-07T11:06:42.099Z,6.57
2018-10-07T11:12:37.126Z,7.51
2018-10-07T11:18:32.071Z,7.32
2018-10-07T11:24:27.072Z,7.17
2018-10-07T11:30:22.087Z,7.46
2018-10-07T11:36:17.107Z,7.2
2018-10-07T11:42:12.092Z,6.16
2018-10-07T11:48:07.072Z,6.51
2018-10-07T11:54:02.092Z,6.34
2018-10-07T11:59:57.092Z,6.64
2018-10-07T12:05:52.081Z,6.46
2018-10-07T12:11:47.102Z,6.65
2018-10-07T12:17:42.106Z,7.56
2018-10-07T12:23:37.128Z,6.28
2018-10-07T12:29:32.163Z,5.4
2018-10-07T12:35:27.117Z,5.63
2018-10-07T12:41:22.119Z,6.09
2018-10-07T12:47:17.121Z,5.57
2018-10-07T12:53:12.117Z,5.35
2018-10-07T12:59:07.148Z,5.96
2018-10-07T13:05:02.146Z,5.81
2018-10-07T13:10:57.127Z,5.02
2018-10-07T13:16:52.141Z,5.51
2018-10-07T13:22:47.166Z,5.05
2018-10-07T13:28:42.184Z,5.23
2018-10-07T13:34:37.151Z,5.13
2018-10-07T13:40:32.178Z,4.66
2018-10-07T13:46:27.177Z,4.88
2018-10-07T13:52:22.159Z,5.24
2018-10-07T13:58:17.247Z,4.16
2018-10-07T14:04:12.162Z,4.83
2018-10-07T14:10:07.176Z,4.33
2018-10-07T14:16:02.172Z,4.57
2018-10-07T14:21:57.231Z,3.82
2018-10-07T14:27:52.191Z,4.42
2018-10-07T14:33:47.185Z,4.09
2018-10-07T14:39:42.227Z,4.27
2018-10-07T14:45:37.272Z,4.45
2018-10-07T14:51:32.244Z,3.62
2018-10-07T14:57:27.224Z,3.98
2018-10-07T15:03:22.202Z,4.68
2018-10-07T15:09:17.252Z,3.87
2018-10-07T15:15:12.212Z,4.33
2018-10-07T15:21:07.241Z,4.49
2018-10-07T15:27:02.249Z,4.22
2018-10-07T15:32:57.261Z,3.96
2018-10-07T15:38:52.246Z,3.95
2018-10-07T15:44:47.235Z,4.2
2018-10-07T15:50:42.248Z,4.48
2018-10-07T15:56:37.237Z,5.11
2018-10-07T16:02:32.301Z,5.38
2018-10-07T16:08:27.255Z,4.94
2018-10-07T16:14:22.313Z,5.36
2018-10-07T16:20:17.298Z,5.15
2018-10-07T16:26:12.327Z,6.05
2018-10-07T16:32:07.320Z,5.86
2018-10-07T16:38:02.264Z,5.36
2018-10-07T16:43:57.346Z,5.37
2018-10-07T16:49:52.351Z,6
2018-10-07T16:55:47.286Z,8.27
2018-10-07T17:01:42.291Z,7.67
2018-10-07T17:07:37.266Z,8.93
2018-10-07T17:13:32.348Z,9.34
2018-10-07T17:19:27.374Z,8.22
2018-10-07T17:25:22.297Z,8.85
2018-10-07T17:31:17.289Z,8.67
2018-10-07T17:37:12.306Z,8.97
2018-10-07T17:43:07.308Z,11.4
2018-10-07T17:49:02.572Z,18.99
2018-10-07T17:54:57.374Z,20.9
2018-10-07T18:00:52.330Z,17.78
2018-10-07T18:06:47.326Z,18.68
2018-10-07T18:12:42.327Z,18.28
2018-10-07T18:18:37.413Z,16.59
2018-10-07T18:24:32.344Z,18.6
2018-10-07T18:30:27.354Z,16.3
2018-10-07T18:36:22.360Z,18.65
2018-10-07T18:42:17.403Z,17.53
2018-10-07T18:48:12.394Z,16.1
2018-10-07T18:54:07.359Z,16.44
2018-10-07T19:00:02.426Z,16.62
2018-10-07T19:05:57.356Z,16.79
2018-10-07T19:11:52.388Z,15.57
2018-10-07T19:17:47.377Z,14.58
2018-10-07T19:23:42.378Z,13.64
2018-10-07T19:29:37.461Z,18.25
2018-10-07T19:35:32.367Z,15.82
2018-10-07T19:41:27.397Z,17.4
2018-10-07T19:47:22.441Z,18.2
2018-10-07T19:53:17.393Z,16.98
2018-10-07T19:59:12.396Z,16.31
2018-10-07T20:05:07.465Z,17.95
2018-10-07T20:11:02.405Z,17.68
2018-10-07T20:16:57.399Z,17.1
2018-10-07T20:22:52.405Z,14.93
2018-10-07T20:28:47.443Z,12.75
2018-10-07T20:34:42.462Z,12.96
2018-10-07T20:40:37.729Z,15.22
2018-10-07T20:46:32.416Z,14.42
2018-10-07T20:52:27.506Z,14.94
2018-10-07T20:58:22.485Z,13.95
2018-10-07T21:04:17.424Z,14.91
2018-10-07T21:10:12.435Z,14.24
2018-10-07T21:16:07.515Z,14.31
2018-10-07T21:22:02.445Z,14.52
2018-10-07T21:27:57.441Z,13.57
2018-10-07T21:33:52.441Z,13.8
2018-10-07T21:39:47.455Z,12.91
2018-10-07T21:45:42.481Z,12.77
2018-10-07T21:51:37.530Z,12.53
2018-10-07T21:57:32.455Z,12.43
2018-10-07T22:03:27.515Z,11.27
2018-10-07T22:09:22.514Z,12.1
2018-10-07T22:15:17.472Z,14.48
2018-10-07T22:21:12.477Z,13.69
2018-10-07T22:27:07.504Z,12.06
2018-10-07T22:33:02.549Z,11.54
2018-10-07T22:38:57.522Z,11.1
2018-10-07T22:44:52.509Z,11.99
2018-10-07T22:50:47.560Z,11.66
2018-10-07T22:56:42.504Z,14.04
2018-10-07T23:02:37.517Z,13.25
2018-10-07T23:08:32.501Z,11.57
2018-10-07T23:14:27.570Z,12.2
2018-10-07T23:20:22.510Z,11.82
2018-10-07T23:26:17.508Z,11.63
2018-10-07T23:32:12.527Z,12.99
2018-10-07T23:38:07.531Z,11.88
2018-10-07T23:44:02.550Z,10.2
2018-10-07T23:49:57.563Z,17.53
2018-10-07T23:55:52.553Z,12.15
